Time;durP1;ratioP1;P1;durP2;ratioP2;P2;SDS_P1;SDS_P2;PMS_P1;PMS_P2;Temp;Humidity;BMP_temperature;BMP_pressure;BME280_temperature;BME280_humidity;BME280_pressure;Samples;Min_cycle;Max_cycle;Signal;HPM_P1;HPM_P2
2023/03/27 00:00:55;;;;;;;;;7.00;6.00;;;;;;;;5085504;28;13237;-74
2023/03/27 00:03:21;;;;;;;;;3.20;2.40;;;;;;;;5085625;28;13302;-74
2023/03/27 00:05:46;;;;;;;;;7.00;3.00;;;;;;;;5085553;28;13285;-75
2023/03/27 00:08:14;;;;;;;;;5.50;4.50;;;;;;;;5084954;28;13472;-75
2023/03/27 00:10:40;;;;;;;;;4.00;3.00;;;;;;;;5085784;28;13458;-76
2023/03/27 00:13:07;;;;;;;;;4.00;4.00;;;;;;;;5085718;28;13275;-75
2023/03/27 00:15:33;;;;;;;;;4.20;2.60;;;;;;;;5085278;28;13939;-75
2023/03/27 00:18:02;;;;;;;;;2.00;2.00;;;;;;;;5085219;28;13281;-75
2023/03/27 00:20:28;;;;;;;;;4.00;1.60;;;;;;;;5085414;28;13262;-75
2023/03/27 00:22:57;;;;;;;;;6.00;3.00;;;;;;;;5085518;28;13267;-76
2023/03/27 00:25:23;;;;;;;;;4.00;3.00;;;;;;;;5085699;28;13366;-76
2023/03/27 00:27:49;;;;;;;;;4.75;4.00;;;;;;;;5067226;28;13329;-76
2023/03/27 00:30:14;;;;;;;;;4.00;2.00;;;;;;;;5085405;28;13267;-75
2023/03/27 00:32:40;;;;;;;;;2.60;2.60;;;;;;;;5085573;28;14126;-75
2023/03/27 00:35:06;;;;;;;;;5.20;2.20;;;;;;;;5085146;28;13279;-75
2023/03/27 00:37:31;;;;;;;;;3.40;2.00;;;;;;;;5067089;28;13277;-75
2023/03/27 00:39:56;;;;;;;;;5.25;2.25;;;;;;;;5085251;28;13246;-74
2023/03/27 00:42:23;;;;;;;;;5.33;1.67;;;;;;;;5085494;28;13278;-76
2023/03/27 00:44:50;;;;;;;;;9.50;5.25;;;;;;;;5085614;28;13233;-74
2023/03/27 00:47:17;;;;;;;;;3.00;3.00;;;;;;;;5083993;28;13321;-75
2023/03/27 08:37:34;;;;;;;;;5.20;3.80;;;;;;;;5102371;27;13406;-68
2023/03/27 08:40:00;;;;;;;;;7.75;3.75;;;;;;;;5082156;28;13412;-68
2023/03/27 08:42:41;;;;;;;;;2.60;1.80;;;;;;;;5087834;28;13435;-70
2023/03/27 08:45:26;;;;;;;;;4.00;3.00;;;;;;;;5102522;28;13384;-69
2023/03/27 08:47:55;;;;;;;;;4.33;3.00;;;;;;;;5094725;28;14236;-70
2023/03/27 08:50:29;;;;;;;;;4.00;3.75;;;;;;;;5082165;28;14116;-69
2023/03/27 08:52:54;;;;;;;;;6.00;3.33;;;;;;;;5080920;28;13537;-70
2023/03/27 08:55:24;;;;;;;;;5.67;3.00;;;;;;;;5080823;28;13421;-70
2023/03/27 08:57:50;;;;;;;;;3.00;3.00;;;;;;;;5080109;28;14082;-69
2023/03/27 09:00:24;;;;;;;;;3.00;3.00;;;;;;;;5081750;28;13445;-69
2023/03/27 09:02:56;;;;;;;;;3.00;3.00;;;;;;;;5080310;28;14311;-68
2023/03/27 09:05:29;;;;;;;;;5.00;2.50;;;;;;;;5081900;28;13459;-68
2023/03/27 09:08:16;;;;;;;;;4.00;4.00;;;;;;;;5079957;28;14255;-67
2023/03/27 09:10:47;;;;;;;;;3.00;3.00;;;;;;;;5081398;28;13580;-69
2023/03/27 09:13:19;;;;;;;;;4.60;4.20;;;;;;;;5078250;28;13555;-68
2023/03/27 09:15:55;;;;;;;;;5.00;3.00;;;;;;;;5081676;28;13499;-70
2023/03/27 09:18:33;;;;;;;;;4.80;4.00;;;;;;;;5081485;28;13510;-71
2023/03/27 09:21:05;;;;;;;;;3.20;3.20;;;;;;;;5081582;28;13517;-69
2023/03/27 09:23:35;;;;;;;;;3.75;3.00;;;;;;;;5094701;28;13394;-68
2023/03/27 09:26:04;;;;;;;;;6.40;3.80;;;;;;;;5091943;28;13538;-69
2023/03/27 09:28:34;;;;;;;;;4.00;3.25;;;;;;;;5080617;28;13447;-70
2023/03/27 09:31:20;;;;;;;;;4.00;3.60;;;;;;;;5081680;28;13428;-70
2023/03/27 09:33:45;;;;;;;;;4.00;4.00;;;;;;;;5081667;28;14522;-71
2023/03/27 09:36:11;;;;;;;;;6.25;3.50;;;;;;;;5101773;28;13632;-71
2023/03/27 09:38:38;;;;;;;;;5.00;4.75;;;;;;;;5088684;28;13427;-71
2023/03/27 09:41:09;;;;;;;;;2.00;2.00;;;;;;;;5101582;28;15034;-70
2023/03/27 09:43:46;;;;;;;;;4.40;1.80;;;;;;;;5082998;28;14592;-70
2023/03/27 09:46:16;;;;;;;;;3.20;2.20;;;;;;;;5081378;28;13496;-71
2023/03/27 09:48:49;;;;;;;;;3.75;2.75;;;;;;;;5068842;28;13447;-72
2023/03/27 09:51:33;;;;;;;;;5.00;5.00;;;;;;;;5083126;28;14244;-74
2023/03/27 09:53:58;;;;;;;;;5.00;5.00;;;;;;;;5076789;28;13226;-68
2023/03/27 09:56:24;;;;;;;;;3.00;2.00;;;;;;;;5067648;28;14257;-70
2023/03/27 09:58:50;;;;;;;;;3.00;3.00;;;;;;;;5079043;28;14290;-72
2023/03/27 10:01:19;;;;;;;;;4.00;4.00;;;;;;;;5087943;28;13444;-71
2023/03/27 10:03:51;;;;;;;;;5.00;2.00;;;;;;;;5078071;28;13443;-70
2023/03/27 10:06:25;;;;;;;;;1.80;1.40;;;;;;;;5068586;28;13318;-69
2023/03/27 10:08:51;;;;;;;;;2.33;2.33;;;;;;;;5074173;28;14269;-69
2023/03/27 10:11:19;;;;;;;;;4.00;2.00;;;;;;;;5080429;28;13417;-72
2023/03/27 10:13:47;;;;;;;;;4.40;3.00;;;;;;;;5077526;28;13452;-70
2023/03/27 10:16:16;;;;;;;;;5.00;2.00;;;;;;;;5073265;28;14151;-70
2023/03/27 10:18:43;;;;;;;;;2.00;1.20;;;;;;;;5072020;28;13551;-69
2023/03/27 10:21:10;;;;;;;;;5.60;3.60;;;;;;;;5067083;28;13402;-69
2023/03/27 10:23:41;;;;;;;;;13.50;9.00;;;;;;;;5067691;28;13575;-71
2023/03/27 10:26:08;;;;;;;;;3.75;3.75;;;;;;;;5067168;28;13447;-71
2023/03/27 10:28:34;;;;;;;;;11.50;10.00;;;;;;;;5067431;28;13440;-69
2023/03/27 10:31:02;;;;;;;;;3.40;3.00;;;;;;;;5067200;28;13528;-73
2023/03/27 10:33:30;;;;;;;;;5.60;4.00;;;;;;;;5067341;28;14217;-74
2023/03/27 10:35:56;;;;;;;;;8.25;7.25;;;;;;;;5067272;28;14188;-68
2023/03/27 10:38:22;;;;;;;;;5.80;5.80;;;;;;;;5069931;28;14329;-72
2023/03/27 10:40:48;;;;;;;;;3.75;3.25;;;;;;;;5067283;28;13559;-72
2023/03/27 10:43:23;;;;;;;;;7.20;7.20;;;;;;;;5067519;28;14730;-73
2023/03/27 10:45:51;;;;;;;;;17.50;13.00;;;;;;;;5067195;28;13471;-73
2023/03/27 10:48:36;;;;;;;;;8.20;6.40;;;;;;;;5066770;28;13588;-72
2023/03/27 10:51:04;;;;;;;;;3.25;3.25;;;;;;;;5066960;28;13411;-73
2023/03/27 10:53:36;;;;;;;;;5.00;4.00;;;;;;;;5067691;28;14345;-72
2023/03/27 10:56:20;;;;;;;;;19.00;16.00;;;;;;;;5067188;28;13610;-72
2023/03/27 10:58:50;;;;;;;;;10.50;9.50;;;;;;;;5066532;28;13550;-72
2023/03/27 11:01:19;;;;;;;;;16.50;13.25;;;;;;;;5066763;28;13768;-73
2023/03/27 11:03:57;;;;;;;;;5.20;4.00;;;;;;;;5066848;28;13371;-73
2023/03/27 11:06:27;;;;;;;;;4.00;4.00;;;;;;;;5064970;28;13507;-72
2023/03/27 11:09:14;;;;;;;;;5.00;4.00;;;;;;;;5066690;28;13520;-73
2023/03/27 11:11:44;;;;;;;;;10.00;8.40;;;;;;;;5066785;28;14142;-71
2023/03/27 11:14:15;;;;;;;;;14.20;10.80;;;;;;;;5066711;28;13413;-72
2023/03/27 11:16:43;;;;;;;;;11.00;11.00;;;;;;;;5066646;28;13621;-72
2023/03/27 11:19:08;;;;;;;;;8.75;8.00;;;;;;;;5066352;28;13465;-72
2023/03/27 11:21:53;;;;;;;;;6.00;6.00;;;;;;;;5066630;28;14179;-72
2023/03/27 11:24:38;;;;;;;;;11.60;8.20;;;;;;;;5066105;28;13420;-72
2023/03/27 11:27:22;;;;;;;;;3.00;3.00;;;;;;;;5065987;28;13477;-72
2023/03/27 11:30:07;;;;;;;;;6.25;6.25;;;;;;;;5066193;28;14672;-72
2023/03/27 11:32:43;;;;;;;;;6.75;6.75;;;;;;;;5066264;28;13420;-72
2023/03/27 11:35:16;;;;;;;;;5.00;5.00;;;;;;;;5064637;28;13466;-72
2023/03/27 11:37:47;;;;;;;;;6.00;5.00;;;;;;;;5066354;28;13443;-72
2023/03/27 11:40:25;;;;;;;;;4.75;4.25;;;;;;;;5065044;28;13475;-72
2023/03/27 11:42:51;;;;;;;;;4.00;4.00;;;;;;;;5066505;28;13528;-72
2023/03/27 11:45:19;;;;;;;;;2.00;2.00;;;;;;;;5065772;28;13558;-71
2023/03/27 11:47:45;;;;;;;;;3.00;1.60;;;;;;;;5066225;28;13752;-72
2023/03/27 11:50:19;;;;;;;;;4.00;4.00;;;;;;;;5064752;28;13429;-72
2023/03/27 11:53:02;;;;;;;;;2.75;2.75;;;;;;;;5066615;28;14051;-72
2023/03/27 11:55:47;;;;;;;;;1.00;1.00;;;;;;;;5065653;28;13415;-72
2023/03/27 11:58:28;;;;;;;;;3.00;2.00;;;;;;;;5066147;28;13526;-72
2023/03/27 12:01:11;;;;;;;;;2.00;1.75;;;;;;;;5065808;28;13455;-72
2023/03/27 12:03:54;;;;;;;;;2.00;2.00;;;;;;;;5066128;28;13442;-72
2023/03/27 12:06:30;;;;;;;;;3.50;3.50;;;;;;;;5098064;28;13451;-72
2023/03/27 12:09:04;;;;;;;;;4.00;4.00;;;;;;;;5066148;28;13580;-72
2023/03/27 12:11:30;;;;;;;;;4.00;4.00;;;;;;;;5065624;28;14264;-71
2023/03/27 12:14:14;;;;;;;;;3.40;3.40;;;;;;;;5065906;28;14325;-71
2023/03/27 12:16:58;;;;;;;;;4.40;4.20;;;;;;;;5065859;28;13575;-72
2023/03/27 12:19:41;;;;;;;;;1.00;1.00;;;;;;;;5066022;28;13425;-71
2023/03/27 12:22:07;;;;;;;;;2.00;2.00;;;;;;;;5066109;28;13460;-71
2023/03/27 12:24:44;;;;;;;;;5.00;5.00;;;;;;;;5065896;28;14252;-71
2023/03/27 12:27:13;;;;;;;;;4.00;3.00;;;;;;;;5064402;28;14244;-71
2023/03/27 12:29:57;;;;;;;;;1.00;1.00;;;;;;;;5065771;28;14189;-72
2023/03/27 12:32:58;;;;;;;;;0.75;0.75;;;;;;;;5066031;28;13412;-72
2023/03/27 12:35:26;;;;;;;;;6.00;5.00;;;;;;;;5043067;28;13295;-72
2023/03/27 12:37:59;;;;;;;;;11.00;10.00;;;;;;;;5061091;28;13451;-72
2023/03/27 12:40:30;;;;;;;;;5.00;5.00;;;;;;;;5065503;28;13619;-72
2023/03/27 12:43:14;;;;;;;;;4.00;4.00;;;;;;;;5065970;28;13578;-71
2023/03/27 12:45:42;;;;;;;;;5.00;5.00;;;;;;;;5065646;28;13614;-72
2023/03/27 12:48:10;;;;;;;;;3.20;3.00;;;;;;;;5065624;28;13446;-72
2023/03/27 12:50:45;;;;;;;;;4.60;3.20;;;;;;;;5064513;28;13443;-72
2023/03/27 12:53:37;;;;;;;;;6.00;5.00;;;;;;;;5065017;28;14252;-71
2023/03/27 12:56:26;;;;;;;;;4.00;3.00;;;;;;;;5042275;28;13317;-71
2023/03/27 12:58:53;;;;;;;;;3.60;3.00;;;;;;;;5035464;28;13272;-72
2023/03/27 13:01:37;;;;;;;;;4.00;4.00;;;;;;;;5043523;28;13474;-72
2023/03/27 13:04:21;;;;;;;;;2.00;1.75;;;;;;;;5043508;28;13377;-72
2023/03/27 13:06:46;;;;;;;;;2.00;2.00;;;;;;;;5043133;28;13313;-71
2023/03/27 13:09:20;;;;;;;;;2.00;2.00;;;;;;;;5026709;28;13379;-72
2023/03/27 13:11:53;;;;;;;;;1.25;1.25;;;;;;;;5043568;28;13281;-72
2023/03/27 13:14:27;;;;;;;;;2.20;2.20;;;;;;;;5042843;28;13286;-73
2023/03/27 13:17:01;;;;;;;;;1.60;1.00;;;;;;;;5043321;28;13973;-72
2023/03/27 13:19:26;;;;;;;;;2.00;2.00;;;;;;;;5043274;28;13285;-72
2023/03/27 13:22:01;;;;;;;;;4.67;3.00;;;;;;;;5043309;28;14061;-72
2023/03/27 13:24:26;;;;;;;;;7.00;5.00;;;;;;;;5046957;28;13465;-72
2023/03/27 13:27:15;;;;;;;;;3.50;3.00;;;;;;;;5046452;28;13334;-71
2023/03/27 13:29:41;;;;;;;;;3.00;1.00;;;;;;;;5019182;28;13448;-72
2023/03/27 13:32:25;;;;;;;;;1.40;1.20;;;;;;;;5046768;28;13420;-71
2023/03/27 13:35:22;;;;;;;;;3.25;3.25;;;;;;;;5049060;28;13456;-71
2023/03/27 13:37:48;;;;;;;;;1.00;1.00;;;;;;;;5026682;28;13339;-72
2023/03/27 13:40:22;;;;;;;;;2.00;2.00;;;;;;;;5026678;28;14111;-73
2023/03/27 13:42:50;;;;;;;;;0.40;0.40;;;;;;;;5026702;28;13263;-72
2023/03/27 13:45:20;;;;;;;;;1.00;1.00;;;;;;;;5010178;28;13324;-73
2023/03/27 13:48:12;;;;;;;;;3.00;3.00;;;;;;;;5025971;28;13296;-72
2023/03/27 13:50:57;;;;;;;;;2.75;1.00;;;;;;;;5011444;28;13418;-72
2023/03/27 13:53:25;;;;;;;;;2.00;1.75;;;;;;;;5045385;22;13520;-71
2023/03/27 13:56:06;;;;;;;;;2.75;2.75;;;;;;;;5055428;28;13534;-72
2023/03/27 13:58:55;;;;;;;;;4.25;3.00;;;;;;;;5069302;28;13406;-71
2023/03/27 14:01:24;;;;;;;;;3.00;3.00;;;;;;;;5040917;28;13482;-71
2023/03/27 14:03:57;;;;;;;;;4.75;2.25;;;;;;;;5069074;28;13377;-71
2023/03/27 14:06:28;;;;;;;;;2.40;1.00;;;;;;;;5069292;28;13436;-71
2023/03/27 14:09:09;;;;;;;;;1.00;1.00;;;;;;;;5067969;28;13535;-71
2023/03/27 14:11:47;;;;;;;;;0.00;0.00;;;;;;;;5069603;28;13382;-71
2023/03/27 14:14:21;;;;;;;;;2.00;1.00;;;;;;;;5069776;28;13377;-71
2023/03/27 14:16:55;;;;;;;;;2.00;1.00;;;;;;;;5069692;28;13491;-71
2023/03/27 14:19:40;;;;;;;;;1.00;0.00;;;;;;;;5069507;28;14185;-71
2023/03/27 14:22:09;;;;;;;;;1.20;1.20;;;;;;;;5037459;28;14109;-71
2023/03/27 14:24:34;;;;;;;;;1.00;1.00;;;;;;;;5069233;28;13493;-71
2023/03/27 14:27:00;;;;;;;;;1.00;1.00;;;;;;;;5069074;28;13563;-71
2023/03/27 14:29:25;;;;;;;;;2.00;2.00;;;;;;;;5069285;28;13391;-72
2023/03/27 14:31:51;;;;;;;;;1.00;1.00;;;;;;;;5069113;28;13379;-72
2023/03/27 14:34:21;;;;;;;;;1.33;1.00;;;;;;;;5069069;28;13308;-71
2023/03/27 14:36:48;;;;;;;;;4.00;3.00;;;;;;;;5067712;28;13399;-71
2023/03/27 14:39:18;;;;;;;;;0.00;0.00;;;;;;;;5069175;28;13343;-71
2023/03/27 14:41:54;;;;;;;;;1.00;1.00;;;;;;;;5068516;28;13513;-84
2023/03/27 14:44:20;;;;;;;;;1.20;1.00;;;;;;;;5069088;28;14131;-70
2023/03/27 14:46:49;;;;;;;;;1.00;1.00;;;;;;;;5057670;28;13480;-69
2023/03/27 14:49:19;;;;;;;;;0.00;0.00;;;;;;;;5048978;28;13442;-70
2023/03/27 14:51:46;;;;;;;;;0.00;0.00;;;;;;;;5049391;28;13410;-71
2023/03/27 14:54:25;;;;;;;;;0.00;0.00;;;;;;;;5072871;22;14411;-69
2023/03/27 14:56:51;;;;;;;;;0.00;0.00;;;;;;;;5063112;28;13560;-69
2023/03/27 14:59:19;;;;;;;;;0.00;0.00;;;;;;;;5066858;28;13380;-68
2023/03/27 15:01:46;;;;;;;;;0.00;0.00;;;;;;;;5067496;28;13512;-69
2023/03/27 15:04:12;;;;;;;;;0.00;0.00;;;;;;;;5067774;28;14255;-69
2023/03/27 15:06:38;;;;;;;;;0.00;0.00;;;;;;;;5067271;28;13414;-68
2023/03/27 15:09:10;;;;;;;;;0.00;0.00;;;;;;;;5067606;28;13385;-68
2023/03/27 15:11:37;;;;;;;;;0.00;0.00;;;;;;;;5067442;28;13938;-68
2023/03/27 15:14:02;;;;;;;;;0.00;0.00;;;;;;;;5067603;28;13517;-68
2023/03/27 15:16:29;;;;;;;;;1.00;1.00;;;;;;;;5067091;28;13373;-69
2023/03/27 15:19:08;;;;;;;;;2.50;2.50;;;;;;;;5066588;28;13406;-67
2023/03/27 15:21:49;;;;;;;;;0.00;0.00;;;;;;;;5067474;28;13451;-67
2023/03/27 15:24:23;;;;;;;;;0.00;0.00;;;;;;;;5067301;28;13367;-67
